Latest Weather Observations for Jervis Bay Airfield

IDN60801

Issued at 2:42 pm EST Thursday 28 May 2020 (issued every 10 minutes, with the page automatically refreshed every 10 minutes)

About weather observations | Map of weather stations | Latest weather observations for NSW | Other Formats
Station Details ID: 068264 Name: JERVIS BAY AIRFIELD AWS Lat: -35.14 Lon: 150.70 Height: 57.18 m
Data from the previous 72 hours. | See also: Recent months at Jervis Bay Airfield
Date/Time
EST
Temp
°C
App
Temp
°C
Dew
Point
°C
Rel
Hum
%
Delta-T
°C
Wind Press
QNH
hPa
Press
MSL
hPa
Rain since
9am
mm
Dir  Spd
km/h
Gust
km/h
Spd
kts
Gust
kts
28/02:30pm 18.2 14.3 10.8 62 4.0 S 22 30 12 16 1019.6 1019.5 0.0
28/02:00pm 18.4 15.1 11.5 64 3.8 SSW 20 28 11 15 1019.7 1019.6 0.0
28/01:30pm 18.2 15.0 11.3 64 3.8 SSW 19 24 10 13 1019.6 1019.5 0.0
28/01:00pm 18.1 15.8 11.7 66 3.5 SSW 15 20 8 11 1019.7 1019.6 0.0
28/12:30pm 18.1 15.8 11.9 67 3.4 SSW 15 19 8 10 1019.9 1019.8 0.0
28/12:00pm 18.0 16.5 11.8 67 3.4 SSW 11 17 6 9 1020.1 1020.0 0.0
28/11:30am 17.7 16.3 11.0 65 3.6 SW 9 13 5 7 1020.4 1020.3 0.0
28/11:00am 17.3 15.8 10.7 65 3.5 SSW 9 13 5 7 1020.5 1020.4 0.0
28/10:30am 17.2 15.6 10.1 63 3.8 SW 9 13 5 7 1020.8 1020.7 0.0
28/10:00am 17.1 17.9 12.4 74 2.6 CALM 0 6 0 3 1020.9 1020.8 0.0
28/09:30am 16.5 15.8 12.1 75 2.4 WNW 7 9 4 5 1020.9 1020.8 0.0
28/09:00am 15.5 14.9 12.3 81 1.7 W 7 9 4 5 1020.8 1020.7 0.0
28/08:30am 13.9 13.3 11.8 87 1.1 W 6 11 3 6 1020.6 1020.5 0.0
28/08:00am 12.1 10.6 10.5 90 0.8 WNW 9 11 5 6 1020.3 1020.2 0.0
28/07:30am 10.1 8.7 9.6 97 0.3 WSW 7 9 4 5 1020.1 1020.0 0.0
28/07:00am 9.2 6.8 8.7 97 0.2 WSW 11 13 6 7 1019.8 1019.7 0.0
28/06:30am 8.9 7.2 8.5 97 0.2 WSW 7 9 4 5 1019.6 1019.5 0.0
28/06:00am 9.0 8.7 8.6 97 0.2 CALM 0 0 0 0 1019.4 1019.3 0.0
28/05:30am 10.2 9.8 9.7 97 0.3 WSW 2 7 1 4 1019.0 1019.0 0.0
28/05:00am 10.3 8.6 10.0 98 0.2 WSW 9 11 5 6 1019.2 1019.1 0.0
28/04:30am 10.5 9.3 10.2 98 0.2 W 7 9 4 5 1019.2 1019.1 0.0
28/04:00am 10.1 9.0 9.8 98 0.2 NW 6 7 3 4 1019.2 1019.1 0.0
28/03:30am 9.8 8.4 9.5 98 0.1 W 7 9 4 5 1019.0 1019.0 0.0
28/03:00am 9.6 8.3 9.3 98 0.1 WSW 6 7 3 4 1019.0 1019.0 0.0
28/02:30am 9.4 7.9 9.1 98 0.1 W 7 9 4 5 1019.2 1019.1 0.0
28/02:00am 9.9 9.8 9.6 98 0.1 CALM 0 4 0 2 1019.3 1019.2 0.0
28/01:30am 10.9 9.8 10.6 98 0.2 WNW 7 9 4 5 1019.5 1019.4 0.0
28/01:00am 11.3 10.3 11.0 98 0.2 NNW 7 9 4 5 1019.5 1019.4 0.0
28/12:30am 11.5 10.6 11.2 98 0.2 NNW 7 11 4 6 1019.5 1019.4 0.0
28/12:00am 10.7 9.7 10.4 98 0.2 NE 6 6 3 3 1019.7 1019.6 0.0
 
Date/Time
EST
Temp
°C
App
Temp
°C
Dew
Point
°C
Rel
Hum
%
Delta-T
°C
Wind Press
QNH
hPa
Press
MSL
hPa
Rain since
9am
mm
Dir  Spd
km/h
Gust
km/h
Spd
kts
Gust
kts
27/11:30pm 10.8 11.0 10.5 98 0.2 CALM 0 0 0 0 1019.7 1019.6 0.0
27/11:00pm 10.9 11.1 10.6 98 0.2 CALM 0 0 0 0 1020.0 1019.9 0.0
27/10:30pm 11.0 9.9 10.7 98 0.2 NNW 7 7 4 4 1020.4 1020.3 0.0
27/10:00pm 11.3 10.3 11.0 98 0.2 NW 7 7 4 4 1020.5 1020.4 0.0
27/09:30pm 11.2 10.4 10.9 98 0.2 NW 6 7 3 4 1020.4 1020.3 0.0
27/09:00pm 11.8 11.1 11.5 98 0.2 NW 6 7 3 4 1020.5 1020.4 0.0
27/08:30pm 12.2 12.8 11.9 98 0.2 CALM 0 0 0 0 1020.4 1020.3 0.0
27/08:00pm 12.6 12.9 12.3 98 0.2 SW 2 6 1 3 1020.4 1020.3 0.0
27/07:30pm 12.9 12.6 12.6 98 0.2 SW 6 6 3 3 1020.4 1020.3 0.0
27/07:00pm 12.8 13.1 12.3 97 0.3 SW 2 7 1 4 1020.4 1020.3 0.0
27/06:30pm 13.0 13.8 12.5 97 0.3 CALM 0 0 0 0 1020.1 1020.0 0.0
27/06:00pm 13.5 14.4 12.9 96 0.3 CALM 0 0 0 0 1020.2 1020.1 0.0
27/05:30pm 14.2 15.2 13.2 94 0.6 CALM 0 0 0 0 1019.9 1019.8 0.0
27/05:00pm 15.0 16.1 13.4 90 0.9 CALM 0 0 0 0 1019.9 1019.8 0.0
27/04:30pm 15.6 16.7 13.4 87 1.2 CALM 0 7 0 4 1019.9 1019.8 0.0
27/04:00pm 15.7 15.7 13.5 87 1.2 ESE 6 7 3 4 1019.7 1019.6 0.0
27/03:30pm 15.9 14.8 13.0 83 1.6 SSE 11 13 6 7 1019.6 1019.5 0.0
27/03:00pm 16.6 15.9 13.1 80 2.0 S 9 13 5 7 1019.9 1019.8 0.0
27/02:30pm 16.5 15.8 13.2 81 1.8 SSW 9 11 5 6 1020.0 1019.9 0.0
27/02:00pm 16.8 16.0 12.9 78 2.2 S 9 13 5 7 1020.3 1020.2 0.0
27/01:30pm 16.4 15.2 12.9 80 1.9 SSW 11 15 6 8 1020.5 1020.4 0.0
27/01:00pm 16.3 14.7 12.8 80 1.9 SSW 13 19 7 10 1020.8 1020.7 0.0
27/12:30pm 16.2 15.2 13.3 83 1.6 SW 11 15 6 8 1021.2 1021.1 0.0
27/12:00pm 15.7 14.1 12.8 83 1.6 SW 13 15 7 8 1021.5 1021.4 0.0
27/11:30am 15.7 14.2 13.2 85 1.4 SW 13 17 7 9 1021.9 1021.8 0.0
27/11:00am 15.9 14.5 13.4 85 1.4 WSW 13 17 7 9 1022.3 1022.2 0.0
27/10:30am 15.8 14.4 13.5 86 1.3 SW 13 17 7 9 1022.7 1022.6 0.0
27/10:00am 15.0 13.9 13.2 89 1.0 WSW 11 15 6 8 1023.0 1022.9 0.0
27/09:30am 14.9 14.2 13.3 90 0.9 WSW 9 13 5 7 1023.0 1022.9 0.0
27/09:00am 14.5 13.8 13.2 92 0.7 WSW 9 13 5 7 1023.0 1022.9 26.0
27/08:30am 14.1 13.0 13.0 93 0.6 SW 11 15 6 8 1023.0 1022.9 26.0
27/08:00am 12.8 11.5 12.5 98 0.2 WSW 11 13 6 7 1022.9 1022.8 26.0
27/07:30am 12.1 10.2 11.8 98 0.2 W 13 15 7 8 1022.9 1022.8 26.0
27/07:00am 12.2 10.3 11.9 98 0.2 WSW 13 17 7 9 1023.0 1022.9 26.0
27/06:52am 12.2 10.3 11.9 98 0.2 W 13 17 7 9 1023.0 1022.9 26.0
27/06:30am 12.2 9.9 11.9 98 0.2 WSW 15 17 8 9 1022.7 1022.6 26.0
27/06:06am 12.2 10.7 11.9 98 0.2 WSW 11 15 6 8 1022.7 1022.6 24.0
27/06:00am 12.3 10.5 12.0 98 0.2 W 13 17 7 9 1022.7 1022.6 23.4
27/05:55am 12.4 10.6 12.1 98 0.2 W 13 20 7 11 1022.6 1022.5 23.0
27/05:53am 12.4 10.6 12.1 98 0.2 W 13 20 7 11 1022.6 1022.5 22.8
27/05:30am 12.7 11.7 12.2 97 0.3 WNW 9 11 5 6 1022.5 1022.4 17.0
27/05:06am 13.5 13.1 13.0 97 0.3 SSE 7 13 4 7 1022.5 1022.4 10.4
27/05:00am 13.9 13.3 13.4 97 0.3 SSE 9 15 5 8 1022.5 1022.4 10.0
27/04:45am 14.0 12.9 13.2 95 0.4 S 11 15 6 8 1022.4 1022.3 7.8
27/04:30am 14.3 12.9 13.3 94 0.6 SSW 13 17 7 9 1022.4 1022.3 7.8
27/04:00am 13.8 12.2 12.9 94 0.5 SSW 13 19 7 10 1022.4 1022.3 7.8
27/03:30am 13.3 11.6 12.5 95 0.4 WSW 13 19 7 10 1022.9 1022.8 7.8
27/03:00am 13.5 11.5 12.7 95 0.4 WSW 15 19 8 10 1023.0 1022.9 7.8
27/02:33am 13.6 11.2 12.8 95 0.4 SW 17 24 9 13 1023.1 1023.0 7.8
27/02:30am 13.7 11.4 12.9 95 0.4 SW 17 24 9 13 1023.1 1023.0 7.8
27/02:00am 13.7 11.1 13.2 97 0.3 SW 19 26 10 14 1023.2 1023.1 7.8
27/01:37am 13.7 11.5 13.2 97 0.3 SW 17 28 9 15 1023.4 1023.3 7.8
27/01:30am 13.7 11.5 13.2 97 0.3 SW 17 22 9 12 1023.4 1023.3 7.8
27/01:00am 13.7 11.8 12.9 95 0.4 SW 15 20 8 11 1023.5 1023.4 7.8
27/12:30am 13.9 11.5 12.8 93 0.6 SW 17 20 9 11 1023.7 1023.6 7.8
27/12:00am 14.2 11.5 12.8 91 0.8 WSW 19 24 10 13 1023.8 1023.7 7.8
 
Date/Time
EST
Temp
°C
App
Temp
°C
Dew
Point
°C
Rel
Hum
%
Delta-T
°C
Wind Press
QNH
hPa
Press
MSL
hPa
Rain since
9am
mm
Dir  Spd
km/h
Gust
km/h
Spd
kts
Gust
kts
26/11:30pm 14.4 12.9 13.1 92 0.7 SW 13 19 7 10 1024.1 1024.0 7.8
26/11:00pm 13.8 11.9 13.0 95 0.4 S 15 19 8 10 1024.1 1024.0 7.8
26/10:30pm 14.2 12.0 13.2 94 0.6 S 17 20 9 11 1023.8 1023.7 7.8
26/10:00pm 14.2 12.3 13.1 93 0.6 SSW 15 20 8 11 1023.8 1023.7 7.8
26/09:30pm 13.8 12.0 13.2 96 0.3 S 15 19 8 10 1024.0 1023.9 7.8
26/09:00pm 13.8 13.1 13.3 97 0.3 SSW 9 11 5 6 1024.2 1024.1 7.8
26/08:30pm 13.8 12.4 13.3 97 0.3 S 13 20 7 11 1024.0 1023.9 7.8
26/08:23pm 13.8 11.6 13.3 97 0.3 SSW 17 22 9 12 1024.0 1023.9 7.8
26/08:00pm 13.6 12.9 13.3 98 0.2 S 9 13 5 7 1024.3 1024.2 7.2
26/07:58pm 13.6 12.9 13.3 98 0.2 SSW 9 13 5 7 1024.3 1024.2 7.2
26/07:55pm 13.6 12.9 13.3 98 0.2 SSW 9 13 5 7 1024.3 1024.2 7.0
26/07:30pm 13.9 11.7 13.4 97 0.3 SSE 17 22 9 12 1024.5 1024.4 6.0
26/07:20pm 13.8 11.6 13.3 97 0.3 SSE 17 24 9 13 1024.4 1024.3 4.8
26/07:08pm 13.4 12.1 12.6 95 0.4 WSW 11 13 6 7 1024.0 1023.9 4.2
26/07:00pm 13.6 12.6 12.3 92 0.7 SSW 9 17 5 9 1024.0 1023.9 4.2
26/06:43pm 13.7 9.7 11.8 88 1.0 ESE 24 32 13 17 1024.1 1024.0 3.4
26/06:30pm 14.5 12.2 13.0 91 0.8 SE 17 28 9 15 1023.7 1023.6 3.2
26/06:10pm 13.8 13.1 13.3 97 0.3 SSW 9 13 5 7 1023.6 1023.5 3.2
26/06:00pm 13.8 12.0 13.2 96 0.3 S 15 20 8 11 1023.5 1023.4 3.2
26/05:43pm 14.7 11.5 13.1 90 0.9 SSE 22 35 12 19 1023.5 1023.4 2.4
26/05:30pm 15.7 12.9 12.6 82 1.7 S 19 26 10 14 1023.3 1023.2 2.0
26/05:00pm 15.8 12.9 12.4 80 1.9 S 19 24 10 13 1023.1 1023.0 2.0
26/04:30pm 15.9 12.2 12.6 81 1.8 SSE 24 32 13 17 1023.0 1022.9 2.0
26/04:00pm 16.4 13.1 12.8 79 2.0 S 22 32 12 17 1022.8 1022.7 2.0
26/03:30pm 17.0 14.0 12.5 75 2.5 S 20 28 11 15 1022.7 1022.6 2.0
26/03:00pm 16.2 14.2 13.9 86 1.3 SSW 17 22 9 12 1022.6 1022.5 2.0
26/02:30pm 16.0 13.5 13.5 85 1.4 S 19 26 10 14 1022.8 1022.7 2.0
26/02:00pm 16.4 14.0 12.6 78 2.1 S 17 28 9 15 1022.9 1022.8 2.0
26/01:30pm 16.8 13.0 12.3 75 2.5 S 24 32 13 17 1022.9 1022.8 2.0
26/01:00pm 16.6 13.3 12.9 79 2.1 S 22 30 12 16 1023.1 1023.0 2.0
26/12:30pm 16.6 14.0 13.7 83 1.6 S 20 30 11 16 1023.6 1023.5 2.0
26/12:00pm 15.2 11.3 14.4 95 0.5 SW 28 35 15 19 1023.8 1023.7 2.0
26/11:30am 15.2 11.8 14.7 97 0.3 SW 26 35 14 19 1024.2 1024.1 2.0
26/11:00am 15.1 11.7 14.8 98 0.2 SW 26 39 14 21 1024.4 1024.3 2.0
26/10:30am 16.3 13.8 14.1 87 1.3 S 20 28 11 15 1024.4 1024.3 2.0
26/10:22am 15.6 13.3 14.1 91 0.9 S 19 30 10 16 1024.3 1024.2 2.0
26/10:00am 14.6 12.2 14.3 98 0.2 SSW 20 30 11 16 1024.2 1024.1 2.0
26/09:57am 14.5 12.2 14.2 98 0.2 SSW 19 30 10 16 1024.2 1024.1 2.0
26/09:45am 14.5 12.2 14.2 98 0.2 SSW 19 33 10 18 1024.4 1024.3 1.8
26/09:30am 14.5 12.0 14.2 98 0.2 SSW 20 35 11 19 1024.5 1024.4 1.6
26/09:24am 14.7 12.5 14.4 98 0.2 S 19 24 10 13 1024.4 1024.3 1.0
26/09:01am 14.5 12.0 14.2 98 0.2 S 20 46 11 25 1024.2 1024.1 0.2
26/09:00am 14.6 12.7 14.3 98 0.2 S 17 37 9 20 1024.2 1024.1 28.8
26/08:30am 13.7 11.0 13.4 98 0.2 S 20 33 11 18 1024.1 1024.0 18.4
26/08:00am 13.4 9.4 13.1 98 0.2 WSW 26 35 14 19 1023.5 1023.4 12.4
26/07:30am 13.0 9.7 12.7 98 0.2 SSW 22 39 12 21 1023.5 1023.4 11.6
26/07:00am 12.8 8.3 12.5 98 0.2 SW 28 41 15 22 1023.3 1023.2 9.8
26/06:30am 12.6 8.4 12.3 98 0.2 SW 26 43 14 23 1022.8 1022.7 8.4
26/06:21am 12.7 8.1 12.4 98 0.2 SW 28 50 15 27 1022.7 1022.6 8.2
26/06:00am 12.6 8.4 12.3 98 0.2 SW 26 43 14 23 1022.7 1022.6 6.8
26/05:30am 12.4 8.1 12.1 98 0.2 SW 26 44 14 24 1022.4 1022.3 6.0
26/05:00am 12.2 8.2 11.9 98 0.2 SW 24 33 13 18 1022.6 1022.5 3.8
26/04:41am 12.5 7.9 12.2 98 0.2 SW 28 43 15 23 1022.5 1022.4 2.4
26/04:30am 12.6 8.0 12.3 98 0.2 SW 28 44 15 24 1022.4 1022.3 2.4
26/04:13am 12.6 8.0 12.3 98 0.2 SW 28 41 15 22 1022.4 1022.3 2.4
26/04:00am 12.4 7.7 12.1 98 0.2 SW 28 41 15 22 1022.3 1022.2 2.4
26/03:45am 12.4 7.7 12.1 98 0.2 SW 28 52 15 28 1022.4 1022.3 2.2
26/03:30am 12.3 7.2 12.0 98 0.2 SW 30 39 16 21 1022.5 1022.4 2.2
26/03:00am 12.3 7.6 12.0 98 0.2 SW 28 43 15 23 1022.5 1022.4 1.8
26/02:58am 12.3 7.2 12.0 98 0.2 SW 30 48 16 26 1022.5 1022.4 1.8
26/02:44am 12.7 7.4 12.4 98 0.2 SW 32 44 17 24 1022.5 1022.4 1.4
26/02:30am 13.2 7.8 12.7 97 0.3 SW 33 54 18 29 1022.7 1022.6 1.4
26/02:07am 13.5 8.2 13.2 98 0.2 SSW 33 52 18 28 1022.6 1022.5 1.4
26/02:00am 13.5 7.9 13.2 98 0.2 SSW 35 50 19 27 1022.5 1022.4 1.4
26/01:32am 13.7 8.1 13.4 98 0.2 SSW 35 54 19 29 1022.6 1022.5 1.4
26/01:31am 13.7 7.7 13.2 97 0.3 SSW 37 54 20 29 1022.5 1022.4 1.4
26/01:30am 13.7 7.7 13.2 97 0.3 SSW 37 54 20 29 1022.6 1022.5 1.4
26/01:05am 13.8 8.2 13.3 97 0.3 SSW 35 56 19 30 1022.6 1022.5 1.4
26/01:00am 13.8 8.2 13.3 97 0.3 SSW 35 50 19 27 1022.6 1022.5 1.4
26/12:42am 13.5 7.9 13.2 98 0.2 SSW 35 56 19 30 1022.6 1022.5 1.4
26/12:30am 13.3 8.2 13.0 98 0.2 SSW 32 50 17 27 1022.8 1022.7 1.4
26/12:14am 13.4 7.3 12.9 97 0.3 SSW 37 56 20 30 1022.8 1022.7 1.2
26/12:02am 13.6 7.5 13.0 96 0.3 SSW 37 56 20 30 1022.9 1022.8 1.2
26/12:00am 13.6 7.9 13.1 97 0.3 SSW 35 52 19 28 1022.9 1022.8 1.2
 
Date/Time
EST
Temp
°C
App
Temp
°C
Dew
Point
°C
Rel
Hum
%
Delta-T
°C
Wind Press
QNH
hPa
Press
MSL
hPa
Rain since
9am
mm
Dir  Spd
km/h
Gust
km/h
Spd
kts
Gust
kts
25/11:46pm 13.5 8.2 13.0 97 0.3 SSW 33 52 18 28 1022.8 1022.7 1.2
25/11:45pm 13.5 8.2 13.0 97 0.3 SSW 33 48 18 26 1022.8 1022.7 1.2
25/11:30pm 13.3 6.8 13.0 98 0.2 SSW 39 57 21 31 1022.7 1022.6 1.2
25/11:23pm 13.3 8.2 13.0 98 0.2 SSW 32 50 17 27 1022.8 1022.7 1.2
25/11:20pm 13.5 8.2 13.2 98 0.2 SSW 33 48 18 26 1022.8 1022.7 1.2
25/11:10pm 13.7 7.6 12.9 95 0.4 S 37 54 20 29 1022.6 1022.5 1.0
25/11:06pm 13.8 7.6 12.7 93 0.6 S 37 54 20 29 1022.6 1022.5 1.0
25/11:00pm 13.8 8.0 12.7 93 0.6 SSW 35 54 19 29 1022.5 1022.4 1.0
25/10:47pm 13.7 7.4 12.4 92 0.7 SSW 37 56 20 30 1022.6 1022.5 1.0
25/10:33pm 14.7 8.9 12.7 88 1.1 SSW 35 54 19 29 1022.4 1022.3 1.0
25/10:30pm 14.7 8.5 12.6 87 1.2 SSW 37 54 20 29 1022.3 1022.2 1.0
25/10:26pm 14.5 8.5 12.2 86 1.3 SSW 35 50 19 27 1022.3 1022.2 1.0
25/10:00pm 13.8 8.6 12.9 94 0.5 SW 32 50 17 27 1022.1 1022.0 1.0
25/09:37pm 13.6 8.5 13.1 97 0.3 SW 32 50 17 27 1022.0 1021.9 1.0
25/09:30pm 13.6 9.3 13.1 97 0.3 SW 28 44 15 24 1022.0 1021.9 1.0
25/09:21pm 13.6 8.8 13.0 96 0.3 SW 30 39 16 21 1022.3 1022.2 1.0
25/09:00pm 14.9 8.6 12.4 85 1.4 SSW 37 63 20 34 1022.1 1022.0 1.0
25/08:33pm 14.7 9.3 12.2 85 1.4 SSW 32 50 17 27 1021.9 1021.8 1.0
25/08:31pm 14.7 9.4 12.6 87 1.2 SSW 32 48 17 26 1021.9 1021.8 1.0
25/08:30pm 14.7 9.4 12.6 87 1.2 SSW 32 48 17 26 1021.8 1021.7 1.0
25/08:01pm 14.2 8.1 12.9 92 0.7 SSW 37 56 20 30 1021.6 1021.5 1.0
25/08:00pm 14.2 8.1 13.1 93 0.6 SSW 37 54 20 29 1021.5 1021.4 1.0
25/07:30pm 14.4 8.3 13.0 91 0.8 SSW 37 57 20 31 1021.2 1021.1 1.0
25/07:00pm 14.3 7.8 12.9 91 0.8 SSW 39 61 21 33 1021.0 1020.9 1.0
25/06:30pm 14.1 8.9 13.5 96 0.3 SSW 33 54 18 29 1020.8 1020.7 1.0
25/06:03pm 14.2 8.3 13.6 96 0.3 SSW 37 56 20 30 1020.6 1020.5 1.0
25/06:00pm 14.3 7.6 13.3 94 0.6 SSW 41 56 22 30 1020.5 1020.4 1.0
25/05:39pm 14.5 8.9 13.2 92 0.7 SSW 35 54 19 29 1020.3 1020.2 1.0
25/05:30pm 14.3 8.2 13.0 92 0.7 SSW 37 54 20 29 1020.2 1020.1 1.0
25/05:00pm 14.1 7.7 13.3 95 0.4 SSW 39 63 21 34 1020.0 1019.9 1.0
25/04:30pm 14.2 7.0 13.2 94 0.6 SSW 43 63 23 34 1019.7 1019.6 1.0
25/04:00pm 13.8 8.2 13.3 97 0.3 SSW 35 54 19 29 1019.7 1019.6 1.0
25/03:46pm 13.9 8.4 13.6 98 0.2 SSW 35 54 19 29 1019.6 1019.5 1.0
25/03:38pm 13.6 6.9 13.3 98 0.2 SSW 41 56 22 30 1019.7 1019.6 1.0
25/03:30pm 13.7 7.4 13.4 98 0.2 SSW 39 57 21 31 1019.6 1019.5 1.0
25/03:00pm 13.5 6.7 13.2 98 0.2 SSW 41 59 22 32 1019.3 1019.2 0.8
25/02:51pm 13.6 7.2 13.3 98 0.2 SSW 39 59 21 32 1019.2 1019.1 0.8

Other formats

Comma delimited format used in spreadsheet applications
http://www.bom.gov.au/fwo/IDN60801/IDN60801.94751.axf

JavaScript Object Notation format (JSON) in row-major order
http://www.bom.gov.au/fwo/IDN60801/IDN60801.94751.json

Data quality

Most of these data are generated automatically and are frequently updated. Quality checks on data are not normally performed. It is possible for incorrect values to appear. Refer to information at About Latest Weather Observations and please check the disclaimer before using these data.